createdAt,value
2022-11-14T00:01:00.418Z,99424.19
2022-11-14T00:03:26.950Z,99415.96
2022-11-14T00:05:53.484Z,99421.66
2022-11-14T00:08:22.705Z,99421.04
2022-11-14T00:10:51.323Z,99417.83
2022-11-14T00:13:19.501Z,99415.96
2022-11-14T00:15:50.028Z,99412.92
2022-11-14T00:18:17.653Z,99414.17
2022-11-14T00:20:44.185Z,99417.27
2022-11-14T00:23:10.730Z,99417.15
2022-11-14T00:25:37.361Z,99414.59
2022-11-14T00:28:03.899Z,99415.27
2022-11-14T00:30:30.440Z,99414.60
2022-11-14T00:32:57.019Z,99410.67
2022-11-14T00:35:23.521Z,99405.38
2022-11-14T00:37:50.264Z,99399.67
2022-11-14T00:40:17.415Z,99399.33
2022-11-14T00:42:44.183Z,99406.56
2022-11-14T00:45:11.475Z,99408.30
2022-11-14T00:47:37.953Z,99407.85
2022-11-14T00:50:05.225Z,99404.73
2022-11-14T00:52:31.845Z,99401.80
2022-11-14T00:54:58.386Z,99402.69
2022-11-14T00:57:24.923Z,99398.06
2022-11-14T00:59:51.565Z,99396.72
2022-11-14T01:02:18.005Z,99394.89
2022-11-14T01:04:44.437Z,99393.53
2022-11-14T01:07:11.155Z,99395.10
2022-11-14T01:09:37.725Z,99391.51
2022-11-14T01:12:04.778Z,99388.48
2022-11-14T01:14:31.311Z,99384.77
2022-11-14T01:16:57.742Z,99385.61
2022-11-14T01:19:24.290Z,99385.11
2022-11-14T01:21:50.928Z,99388.58
2022-11-14T01:24:17.368Z,99397.02
2022-11-14T01:26:43.906Z,99393.27
2022-11-14T01:29:10.391Z,99392.11
2022-11-14T01:31:36.904Z,99388.86
2022-11-14T01:34:03.518Z,99387.38
2022-11-14T01:36:31.698Z,99387.91
2022-11-14T01:38:58.233Z,99379.17
2022-11-14T01:41:24.813Z,99373.19
2022-11-14T01:43:51.314Z,99371.33
2022-11-14T01:46:20.494Z,99372.53
2022-11-14T01:49:09.251Z,99370.28
2022-11-14T01:51:43.409Z,99367.86
2022-11-14T01:54:17.208Z,99372.86
2022-11-14T01:56:50.332Z,99369.14
2022-11-14T01:59:22.627Z,99366.27
2022-11-14T02:01:52.168Z,99363.15
2022-11-14T02:04:33.168Z,99355.77
2022-11-14T02:07:03.872Z,99362.45
2022-11-14T02:09:35.610Z,99352.20
2022-11-14T02:12:06.188Z,99356.86
2022-11-14T02:14:34.470Z,99360.48
2022-11-14T02:17:27.855Z,99357.76
2022-11-14T02:19:51.921Z,99356.27
2022-11-14T02:22:18.662Z,99361.10
2022-11-14T02:24:46.190Z,99356.84
2022-11-14T02:27:14.712Z,99352.54
2022-11-14T02:29:42.272Z,99351.69
2022-11-14T02:32:10.896Z,99353.40
2022-11-14T02:34:38.634Z,99354.46
2022-11-14T02:37:05.845Z,99351.05
2022-11-14T02:39:32.316Z,99350.73
2022-11-14T02:41:58.986Z,99344.95
2022-11-14T02:44:26.096Z,99347.54
2022-11-14T02:46:52.749Z,99347.55
2022-11-14T02:49:19.288Z,99343.46
2022-11-14T02:51:45.828Z,99345.35
2022-11-14T02:54:12.379Z,99347.60
2022-11-14T02:56:39.000Z,99345.71
2022-11-14T02:59:05.463Z,99347.24
2022-11-14T03:01:32.061Z,99350.14
2022-11-14T03:03:58.714Z,99354.95
2022-11-14T03:06:25.250Z,99353.04
2022-11-14T03:08:51.792Z,99344.47
2022-11-14T03:11:18.323Z,99337.10
2022-11-14T03:13:45.070Z,99334.52
2022-11-14T03:16:13.560Z,99335.21
2022-11-14T03:18:40.599Z,99335.55
2022-11-14T03:21:09.093Z,99332.46
2022-11-14T03:23:36.454Z,99334.50
2022-11-14T03:26:05.162Z,99336.52
2022-11-14T03:28:32.334Z,99335.99
2022-11-14T03:30:59.138Z,99330.82
2022-11-14T03:33:25.774Z,99326.35
2022-11-14T03:35:53.106Z,99327.70
2022-11-14T03:38:20.714Z,99325.61
2022-11-14T03:40:47.141Z,99326.45
2022-11-14T03:43:13.650Z,99326.61
2022-11-14T03:45:40.113Z,99324.01
2022-11-14T03:48:06.865Z,99329.99
2022-11-14T03:50:33.650Z,99326.56
2022-11-14T03:53:00.140Z,99322.45
2022-11-14T03:55:27.311Z,99319.23
2022-11-14T03:57:53.896Z,99319.91
2022-11-14T04:00:20.676Z,99319.88
2022-11-14T04:02:47.151Z,99326.74
2022-11-14T04:05:14.365Z,99329.13
2022-11-14T04:07:40.903Z,99327.78
2022-11-14T04:10:08.050Z,99322.31
2022-11-14T04:12:34.586Z,99326.64
2022-11-14T04:15:01.124Z,99325.48
2022-11-14T04:17:27.660Z,99329.45
2022-11-14T04:19:54.198Z,99329.32
2022-11-14T04:22:20.892Z,99321.11
2022-11-14T04:24:47.585Z,99320.61
2022-11-14T04:27:14.037Z,99323.55
2022-11-14T04:29:40.474Z,99323.23
2022-11-14T04:32:07.182Z,99324.13
2022-11-14T04:34:33.736Z,99321.23
2022-11-14T04:37:00.192Z,99323.48
2022-11-14T04:39:26.709Z,99325.88
2022-11-14T04:41:53.247Z,99326.89
2022-11-14T04:44:19.786Z,99326.57
2022-11-14T04:46:46.325Z,99324.34
2022-11-14T04:49:13.164Z,99325.73
2022-11-14T04:51:39.702Z,99330.89
2022-11-14T04:54:06.328Z,99325.41
2022-11-14T04:56:32.787Z,99320.79
2022-11-14T04:58:59.440Z,99323.21
2022-11-14T05:01:26.026Z,99321.50
2022-11-14T05:03:52.623Z,99323.75
2022-11-14T05:06:19.073Z,99323.05
2022-11-14T05:08:45.504Z,99322.21
2022-11-14T05:11:16.061Z,99321.18
2022-11-14T05:13:43.073Z,99321.87
2022-11-14T05:16:10.212Z,99319.79
2022-11-14T05:18:37.119Z,99319.98
2022-11-14T05:21:04.205Z,99317.41
2022-11-14T05:23:30.679Z,99313.34
2022-11-14T05:26:00.356Z,99309.77
2022-11-14T05:28:27.200Z,99310.61
2022-11-14T05:31:00.235Z,99307.55
2022-11-14T05:33:26.720Z,99311.67
2022-11-14T05:35:53.135Z,99308.25
2022-11-14T05:38:19.697Z,99308.77
2022-11-14T05:40:46.228Z,99316.33
2022-11-14T05:43:12.767Z,99311.39
2022-11-14T05:45:39.293Z,99310.72
2022-11-14T05:48:06.252Z,99306.46
2022-11-14T05:50:32.791Z,99306.78
2022-11-14T05:52:59.270Z,99306.45
2022-11-14T05:55:25.767Z,99314.69
2022-11-14T05:57:52.508Z,99315.91
2022-11-14T06:00:19.147Z,99318.16
2022-11-14T06:02:45.660Z,99315.08
2022-11-14T06:05:12.226Z,99308.90
2022-11-14T06:07:38.779Z,99311.63
2022-11-14T06:10:05.917Z,99312.81
2022-11-14T06:12:32.670Z,99310.58
2022-11-14T06:14:59.199Z,99314.48
2022-11-14T06:17:25.736Z,99315.33
2022-11-14T06:19:52.277Z,99316.03
2022-11-14T06:22:18.916Z,99324.08
2022-11-14T06:24:45.458Z,99323.04
2022-11-14T06:27:11.969Z,99326.98
2022-11-14T06:29:38.408Z,99323.71
2022-11-14T06:32:05.284Z,99317.01
2022-11-14T06:34:31.691Z,99312.52
2022-11-14T06:36:58.357Z,99312.52
2022-11-14T06:39:24.891Z,99314.73
2022-11-14T06:41:51.432Z,99313.17
2022-11-14T06:44:17.972Z,99321.02
2022-11-14T06:46:44.458Z,99327.55
2022-11-14T06:49:10.948Z,99327.88
2022-11-14T06:51:37.567Z,99329.08
2022-11-14T06:54:04.223Z,99329.05
2022-11-14T06:56:30.761Z,99329.02
2022-11-14T06:58:57.178Z,99324.61
2022-11-14T07:01:25.474Z,99317.64
2022-11-14T07:03:52.616Z,99314.07
2022-11-14T07:06:22.898Z,99312.52
2022-11-14T07:08:50.013Z,99312.69
2022-11-14T07:11:19.650Z,99309.91
2022-11-14T07:13:46.149Z,99312.48
2022-11-14T07:16:12.689Z,99312.27
2022-11-14T07:18:39.331Z,99311.19
2022-11-14T07:21:06.526Z,99311.55
2022-11-14T07:23:34.765Z,99306.21
2022-11-14T07:26:02.327Z,99304.80
2022-11-14T07:28:30.078Z,99301.66
2022-11-14T07:30:56.936Z,99300.42
2022-11-14T07:33:23.474Z,99299.04
2022-11-14T07:35:51.096Z,99295.91
2022-11-14T07:38:17.547Z,99291.41
2022-11-14T07:40:59.645Z,99289.86
2022-11-14T07:43:27.343Z,99288.36
2022-11-14T07:45:54.047Z,99287.51
2022-11-14T07:48:20.519Z,99280.91
2022-11-14T07:50:47.163Z,99281.70
2022-11-14T07:53:13.696Z,99283.14
2022-11-14T07:55:40.441Z,99279.67
2022-11-14T07:58:06.974Z,99281.69
2022-11-14T08:00:33.452Z,99276.67
2022-11-14T08:03:45.887Z,99278.84
2022-11-14T08:06:57.035Z,99279.18
2022-11-14T08:10:07.907Z,99280.91
2022-11-14T08:12:34.427Z,99276.95
2022-11-14T08:15:00.849Z,99271.23
2022-11-14T08:17:27.444Z,99265.30
2022-11-14T08:19:53.858Z,99257.30
2022-11-14T08:22:20.473Z,99256.63
2022-11-14T08:24:47.011Z,99255.17
2022-11-14T08:27:13.551Z,99258.73
2022-11-14T08:29:40.192Z,99260.60
2022-11-14T08:32:06.931Z,99260.25
2022-11-14T08:34:33.592Z,99252.45
2022-11-14T08:37:01.377Z,99244.98
2022-11-14T08:39:28.296Z,99241.64
2022-11-14T08:41:56.432Z,99240.48
2022-11-14T08:44:23.012Z,99239.95
2022-11-14T08:46:50.137Z,99237.66
2022-11-14T08:49:16.710Z,99236.53
2022-11-14T08:51:43.361Z,99236.91
2022-11-14T08:54:10.205Z,99235.42
2022-11-14T08:56:36.733Z,99226.75
2022-11-14T08:59:04.644Z,99229.58
2022-11-14T09:01:31.101Z,99228.13
2022-11-14T09:04:00.041Z,99222.64
2022-11-14T09:06:26.882Z,99222.36
2022-11-14T09:08:53.417Z,99223.98
2022-11-14T09:11:20.106Z,99222.10
2022-11-14T09:13:46.809Z,99218.48
2022-11-14T09:16:13.567Z,99214.90
2022-11-14T09:18:40.179Z,99214.41
2022-11-14T09:21:09.081Z,99209.98
2022-11-14T09:23:36.438Z,99207.23
2022-11-14T09:26:07.523Z,99205.73
2022-11-14T09:28:35.152Z,99208.06
2022-11-14T09:31:07.077Z,99200.57
2022-11-14T09:33:35.081Z,99202.02
2022-11-14T09:36:04.712Z,99203.46
2022-11-14T09:38:36.991Z,99197.25
2022-11-14T09:41:26.160Z,99198.83
2022-11-14T09:44:20.700Z,99194.19
2022-11-14T09:47:01.612Z,99190.20
2022-11-14T09:49:47.639Z,99189.52
2022-11-14T09:52:32.885Z,99182.23
2022-11-14T09:55:11.612Z,99183.53
2022-11-14T09:57:40.789Z,99178.00
2022-11-14T10:00:22.680Z,99176.74
2022-11-14T10:02:59.848Z,99170.75
2022-11-14T10:05:32.580Z,99170.90
2022-11-14T10:08:31.178Z,99172.52
2022-11-14T10:11:22.508Z,99171.51
2022-11-14T10:14:23.238Z,99166.33
2022-11-14T10:17:14.967Z,99167.53
2022-11-14T10:20:11.831Z,99160.64
2022-11-14T10:22:50.026Z,99162.25
2022-11-14T10:25:16.577Z,99162.36
2022-11-14T10:28:34.928Z,99152.92
2022-11-14T10:31:19.345Z,99151.14
2022-11-14T10:34:03.447Z,99144.91
2022-11-14T10:36:54.361Z,99140.00
2022-11-14T10:39:31.486Z,99138.42
2022-11-14T10:42:07.743Z,99135.10
2022-11-14T10:44:42.342Z,99127.44
2022-11-14T10:47:16.059Z,99120.55
2022-11-14T10:49:46.280Z,99120.86
2022-11-14T10:52:16.638Z,99111.23
2022-11-14T10:54:55.238Z,99109.32
2022-11-14T10:57:22.883Z,99099.75
2022-11-14T10:59:49.332Z,99097.29
2022-11-14T11:02:16.369Z,99090.21
2022-11-14T11:04:44.838Z,99086.80
2022-11-14T11:07:11.468Z,99086.00
2022-11-14T11:09:45.211Z,99078.08
2022-11-14T11:12:18.922Z,99075.39
2022-11-14T11:14:48.555Z,99076.69
2022-11-14T11:17:17.605Z,99072.91
2022-11-14T11:19:44.318Z,99071.73
2022-11-14T11:22:36.406Z,99065.23
2022-11-14T11:25:22.089Z,99063.25
2022-11-14T11:28:04.031Z,99056.77
2022-11-14T11:30:30.646Z,99054.30
2022-11-14T11:32:57.182Z,99056.67
2022-11-14T11:35:23.728Z,99053.13
2022-11-14T11:37:56.142Z,99046.73
2022-11-14T11:40:26.527Z,99052.58
2022-11-14T11:45:48.587Z,99044.38
2022-11-14T11:48:19.145Z,99044.31
2022-11-14T11:50:45.861Z,99046.23
2022-11-14T11:53:24.585Z,99044.79
2022-11-14T11:56:01.181Z,99038.52
2022-11-14T11:58:44.801Z,99041.86
2022-11-14T12:01:15.046Z,99038.33
2022-11-14T12:03:46.680Z,99034.66
2022-11-14T12:06:20.512Z,99031.75
2022-11-14T12:09:02.324Z,99026.69
2022-11-14T12:11:33.134Z,99021.98
2022-11-14T12:14:16.773Z,99023.77
2022-11-14T12:17:05.861Z,99023.39
2022-11-14T12:19:48.154Z,99024.38
2022-11-14T12:22:23.504Z,99018.89
2022-11-14T12:25:24.141Z,99014.05
2022-11-14T12:28:13.224Z,99012.95
2022-11-14T12:30:42.504Z,99008.90
2022-11-14T12:33:33.384Z,99009.27
2022-11-14T12:36:02.863Z,99006.73
2022-11-14T12:38:40.946Z,99004.02
2022-11-14T12:41:08.548Z,98998.77
2022-11-14T12:43:39.423Z,98994.23
2022-11-14T12:46:08.108Z,98994.42
2022-11-14T12:48:38.976Z,98993.23
2022-11-14T12:51:25.626Z,98989.73
2022-11-14T12:53:54.516Z,98990.27
2022-11-14T12:56:30.031Z,98988.79
2022-11-14T12:59:27.086Z,98985.34
2022-11-14T13:02:08.576Z,98981.98
2022-11-14T13:04:54.015Z,98984.39
2022-11-14T13:07:34.106Z,98990.73
2022-11-14T13:10:04.343Z,98989.33
2022-11-14T13:12:35.322Z,98988.55
2022-11-14T13:15:32.126Z,98983.80
2022-11-14T13:18:15.363Z,98981.83
2022-11-14T13:20:42.107Z,98978.30
2022-11-14T13:23:40.797Z,98976.31
2022-11-14T13:26:10.058Z,98977.81
2022-11-14T13:28:45.246Z,98977.55
2022-11-14T13:31:33.387Z,98973.75
2022-11-14T13:34:01.277Z,98968.06
2022-11-14T13:36:40.296Z,98962.55
2022-11-14T13:39:09.690Z,98964.89
2022-11-14T13:41:57.952Z,98963.03
2022-11-14T13:44:51.719Z,98964.50
2022-11-14T13:47:47.723Z,98966.09
2022-11-14T13:50:17.599Z,98963.91
2022-11-14T13:52:47.112Z,98955.81
2022-11-14T13:55:22.118Z,98955.84
2022-11-14T13:58:28.582Z,98958.52
2022-11-14T14:01:23.158Z,98960.52
2022-11-14T14:04:16.981Z,98958.95
2022-11-14T14:07:07.950Z,98960.01
2022-11-14T14:09:50.106Z,98955.26
2022-11-14T14:12:33.514Z,98953.45
2022-11-14T14:15:18.256Z,98952.05
2022-11-14T14:18:22.228Z,98951.06
2022-11-14T14:21:00.854Z,98947.89
2022-11-14T14:23:27.290Z,98946.55
2022-11-14T14:26:20.791Z,98946.90
2022-11-14T14:28:56.527Z,98941.98
2022-11-14T14:31:23.881Z,98939.48
2022-11-14T14:33:52.262Z,98937.50
2022-11-14T14:36:27.487Z,98933.64
2022-11-14T14:39:17.586Z,98935.17
2022-11-14T14:41:44.340Z,98936.10
2022-11-14T14:44:27.264Z,98937.83
2022-11-14T14:46:54.725Z,98934.11
2022-11-14T14:49:39.130Z,98929.80
2022-11-14T14:52:37.988Z,98930.38
2022-11-14T14:55:07.704Z,98930.75
2022-11-14T14:57:34.642Z,98934.45
2022-11-14T15:00:04.971Z,98932.65
2022-11-14T15:02:32.123Z,98931.50
2022-11-14T15:05:00.094Z,98928.64
2022-11-14T15:07:29.989Z,98927.48
2022-11-14T15:09:58.102Z,98925.11
2022-11-14T15:12:27.614Z,98919.64
2022-11-14T15:14:55.127Z,98918.79
2022-11-14T15:17:25.411Z,98916.55
2022-11-14T15:19:53.907Z,98918.26
2022-11-14T15:22:24.718Z,98916.35
2022-11-14T15:25:23.782Z,98918.01
2022-11-14T15:27:53.330Z,98910.66
2022-11-14T15:30:26.737Z,98914.35
2022-11-14T15:32:59.379Z,98920.45
2022-11-14T15:35:28.341Z,98919.88
2022-11-14T15:38:21.747Z,98917.91
2022-11-14T15:41:19.242Z,98920.80
2022-11-14T15:43:45.684Z,98917.16
2022-11-14T15:46:40.312Z,98913.14
2022-11-14T15:49:22.769Z,98910.69
2022-11-14T15:52:00.738Z,98909.05
2022-11-14T15:54:34.443Z,98910.30
2022-11-14T15:57:09.544Z,98912.20
2022-11-14T15:59:36.083Z,98911.41
2022-11-14T16:02:12.696Z,98907.35
2022-11-14T16:04:44.416Z,98905.55
2022-11-14T16:07:15.602Z,98910.60
2022-11-14T16:09:42.416Z,98910.65
2022-11-14T16:12:09.101Z,98910.17
2022-11-14T16:14:36.517Z,98910.58
2022-11-14T16:17:03.978Z,98909.09
2022-11-14T16:19:30.626Z,98905.20
2022-11-14T16:22:01.367Z,98904.39
2022-11-14T16:24:33.695Z,98906.51
2022-11-14T16:27:01.315Z,98907.30
2022-11-14T16:29:28.046Z,98908.58
2022-11-14T16:31:55.087Z,98912.27
2022-11-14T16:34:24.356Z,98908.26
2022-11-14T16:36:58.935Z,98904.38
2022-11-14T16:39:25.885Z,98903.05
2022-11-14T16:41:52.835Z,98907.23
2022-11-14T16:44:19.494Z,98904.36
2022-11-14T16:46:46.249Z,98903.57
2022-11-14T16:49:17.182Z,98901.68
2022-11-14T16:51:49.355Z,98900.70
2022-11-14T16:54:18.769Z,98907.45
2022-11-14T16:56:45.490Z,98904.61
2022-11-14T16:59:12.257Z,98906.92
2022-11-14T17:01:38.859Z,98908.02
2022-11-14T17:04:05.926Z,98910.49
2022-11-14T17:06:32.569Z,98911.56
2022-11-14T17:09:00.450Z,98913.66
2022-11-14T17:11:27.599Z,98912.64
2022-11-14T17:13:56.396Z,98912.13
2022-11-14T17:16:24.065Z,98909.22
2022-11-14T17:18:52.235Z,98904.96
2022-11-14T17:21:18.781Z,98899.86
2022-11-14T17:23:45.266Z,98899.73
2022-11-14T17:26:13.496Z,98903.06
2022-11-14T17:28:39.983Z,98899.38
2022-11-14T17:31:08.032Z,98898.19
2022-11-14T17:33:35.267Z,98898.05
2022-11-14T17:36:07.883Z,98896.85
2022-11-14T17:38:35.919Z,98897.73
2022-11-14T17:41:03.586Z,98896.41
2022-11-14T17:43:33.125Z,98896.09
2022-11-14T17:46:05.469Z,98893.16
2022-11-14T17:48:33.340Z,98891.44
2022-11-14T17:51:05.572Z,98893.84
2022-11-14T17:53:33.599Z,98894.32
2022-11-14T17:56:00.329Z,98892.23
2022-11-14T17:58:31.544Z,98891.67
2022-11-14T18:00:58.221Z,98894.21
2022-11-14T18:03:25.955Z,98895.71
2022-11-14T18:05:53.147Z,98891.77
2022-11-14T18:08:19.573Z,98895.38
2022-11-14T18:10:46.021Z,98889.54
2022-11-14T18:13:12.561Z,98888.02
2022-11-14T18:15:39.335Z,98880.34
2022-11-14T18:18:06.156Z,98879.16
2022-11-14T18:20:32.696Z,98876.08
2022-11-14T18:22:59.238Z,98873.68
2022-11-14T18:25:25.801Z,98870.06
2022-11-14T18:27:52.322Z,98866.80
2022-11-14T18:30:42.015Z,98866.48
2022-11-14T18:33:05.472Z,98859.80
2022-11-14T18:35:31.913Z,98861.34
2022-11-14T18:37:58.442Z,98860.09
2022-11-14T18:40:24.993Z,98858.17
2022-11-14T18:42:51.432Z,98856.83
2022-11-14T18:45:17.857Z,98857.50
2022-11-14T18:47:44.408Z,98854.77
2022-11-14T18:50:10.949Z,98857.00
2022-11-14T18:52:37.391Z,98857.50
2022-11-14T18:55:05.418Z,98857.17
2022-11-14T18:57:31.909Z,98854.77
2022-11-14T18:59:58.449Z,98852.86
2022-11-14T19:02:25.022Z,98851.84
2022-11-14T19:04:51.708Z,98854.09
2022-11-14T19:07:18.212Z,98853.05
2022-11-14T19:09:45.021Z,98856.81
2022-11-14T19:12:11.457Z,98857.63
2022-11-14T19:14:37.997Z,98859.56
2022-11-14T19:17:04.946Z,98856.02
2022-11-14T19:19:31.488Z,98857.58
2022-11-14T19:21:58.233Z,98854.83
2022-11-14T19:24:26.518Z,98854.66
2022-11-14T19:26:52.953Z,98856.55
2022-11-14T19:29:19.493Z,98854.31
2022-11-14T19:31:46.031Z,98858.11
2022-11-14T19:34:12.518Z,98853.02
2022-11-14T19:36:58.741Z,98852.89
2022-11-14T19:39:25.727Z,98850.02
2022-11-14T19:41:52.167Z,98851.08
2022-11-14T19:44:18.714Z,98850.73
2022-11-14T19:46:47.883Z,98852.95
2022-11-14T19:49:15.279Z,98853.48
2022-11-14T19:51:41.813Z,98851.92
2022-11-14T19:54:10.027Z,98849.72
2022-11-14T19:56:36.957Z,98848.39
2022-11-14T19:59:03.614Z,98842.77
2022-11-14T20:01:30.113Z,98842.97
2022-11-14T20:04:02.202Z,98841.43
2022-11-14T20:06:34.479Z,98842.44
2022-11-14T20:09:05.247Z,98839.84
2022-11-14T20:11:31.861Z,98837.06
2022-11-14T20:13:59.223Z,98832.58
2022-11-14T20:16:31.437Z,98831.73
2022-11-14T20:18:59.899Z,98829.18
2022-11-14T20:21:28.777Z,98829.04
2022-11-14T20:23:55.325Z,98828.50
2022-11-14T20:26:23.026Z,98826.96
2022-11-14T20:28:50.701Z,98825.77
2022-11-14T20:31:19.750Z,98823.55
2022-11-14T20:33:47.935Z,98818.08
2022-11-14T20:36:19.618Z,98818.45
2022-11-14T20:38:46.336Z,98816.42
2022-11-14T20:41:13.526Z,98816.98
2022-11-14T20:43:40.858Z,98812.39
2022-11-14T20:46:12.012Z,98807.59
2022-11-14T20:48:39.614Z,98807.40
2022-11-14T20:51:10.732Z,98804.84
2022-11-14T20:53:37.578Z,98802.44
2022-11-14T20:56:04.519Z,98802.48
2022-11-14T20:58:32.085Z,98801.33
2022-11-14T21:00:59.064Z,98801.27
2022-11-14T21:03:26.090Z,98793.27
2022-11-14T21:05:53.077Z,98791.25
2022-11-14T21:08:19.725Z,98791.27
2022-11-14T21:10:49.979Z,98790.73
2022-11-14T21:13:18.301Z,98791.42
2022-11-14T21:15:44.846Z,98794.86
2022-11-14T21:18:11.315Z,98791.80
2022-11-14T21:20:37.826Z,98786.51
2022-11-14T21:23:04.372Z,98788.40
2022-11-14T21:25:30.916Z,98788.42
2022-11-14T21:27:57.661Z,98785.35
2022-11-14T21:30:24.103Z,98782.94
2022-11-14T21:32:53.380Z,98777.44
2022-11-14T21:35:19.839Z,98777.77
2022-11-14T21:37:46.277Z,98779.29
2022-11-14T21:40:12.973Z,98779.11
2022-11-14T21:42:39.394Z,98783.77
2022-11-14T21:45:07.041Z,98779.88
2022-11-14T21:47:34.355Z,98777.89
2022-11-14T21:50:01.438Z,98778.28
2022-11-14T21:52:28.292Z,98779.34
2022-11-14T21:54:54.833Z,98776.30
2022-11-14T21:57:21.372Z,98769.48
2022-11-14T21:59:47.798Z,98770.20
2022-11-14T22:02:14.446Z,98770.88
2022-11-14T22:04:40.924Z,98765.27
2022-11-14T22:07:08.443Z,98762.23
2022-11-14T22:09:36.973Z,98762.11
2022-11-14T22:12:05.432Z,98761.46
2022-11-14T22:14:31.874Z,98759.27
2022-11-14T22:16:58.412Z,98759.49
2022-11-14T22:19:25.271Z,98752.17
2022-11-14T22:21:52.231Z,98752.02
2022-11-14T22:24:18.730Z,98747.87
2022-11-14T22:26:45.197Z,98748.89
2022-11-14T22:29:11.755Z,98746.84
2022-11-14T22:31:38.276Z,98743.54
2022-11-14T22:34:05.040Z,98745.77
2022-11-14T22:36:31.664Z,98743.70
2022-11-14T22:38:58.207Z,98744.05
2022-11-14T22:41:32.795Z,98742.32
2022-11-14T22:44:01.070Z,98741.78
2022-11-14T22:46:28.490Z,98741.58
2022-11-14T22:48:55.832Z,98743.95
2022-11-14T22:51:24.997Z,98745.14
2022-11-14T22:53:54.149Z,98738.35
2022-11-14T22:56:23.066Z,98742.28
2022-11-14T22:58:49.780Z,98743.00
2022-11-14T23:01:20.318Z,98746.15
2022-11-14T23:03:47.938Z,98741.26
2022-11-14T23:06:17.797Z,98740.98
2022-11-14T23:08:44.947Z,98738.43
2022-11-14T23:11:33.819Z,98737.10
2022-11-14T23:14:01.185Z,98736.25
2022-11-14T23:16:33.052Z,98734.75
2022-11-14T23:19:02.494Z,98733.71
2022-11-14T23:21:36.980Z,98730.45
2022-11-14T23:24:07.622Z,98729.58
2022-11-14T23:26:34.668Z,98728.23
2022-11-14T23:29:01.350Z,98729.44
2022-11-14T23:31:28.326Z,98726.70
2022-11-14T23:33:56.458Z,98726.34
2022-11-14T23:36:23.089Z,98719.33
2022-11-14T23:38:52.396Z,98718.99
2022-11-14T23:41:24.496Z,98715.58
2022-11-14T23:43:51.017Z,98713.15
2022-11-14T23:46:17.663Z,98708.30
2022-11-14T23:48:44.259Z,98705.91
2022-11-14T23:51:10.835Z,98702.95
2022-11-14T23:53:37.618Z,98699.69
2022-11-14T23:56:04.439Z,98694.91
2022-11-14T23:58:31.221Z,98697.80
